createdAt,value
2019-01-06T00:00:21.605Z,2.75
2019-01-06T00:03:43.438Z,2.72
2019-01-06T00:07:06.241Z,2.69
2019-01-06T00:10:41.677Z,2.72
2019-01-06T00:14:03.261Z,2.67
2019-01-06T00:17:21.792Z,2.65
2019-01-06T00:20:43.699Z,2.51
2019-01-06T00:24:05.319Z,2.38
2019-01-06T00:27:27.083Z,2.30
2019-01-06T00:31:05.262Z,2.32
2019-01-06T00:34:27.629Z,2.32
2019-01-06T00:37:49.323Z,2.30
2019-01-06T00:41:18.216Z,2.31
2019-01-06T00:44:43.808Z,2.19
2019-01-06T00:48:09.826Z,2.20
2019-01-06T00:51:47.713Z,2.29
2019-01-06T00:55:09.753Z,2.35
2019-01-06T00:58:37.529Z,2.42
2019-01-06T01:01:57.103Z,2.47
2019-01-06T01:05:18.872Z,2.54
2019-01-06T01:08:38.830Z,2.51
2019-01-06T01:12:11.056Z,2.53
2019-01-06T01:15:28.422Z,2.60
2019-01-06T01:18:54.125Z,2.64
2019-01-06T01:22:12.695Z,2.66
2019-01-06T01:25:38.699Z,2.70
2019-01-06T01:29:00.212Z,2.71
2019-01-06T01:32:27.607Z,2.76
2019-01-06T01:35:49.110Z,2.83
2019-01-06T01:39:10.575Z,2.82
2019-01-06T01:42:28.323Z,2.82
2019-01-06T01:45:50.105Z,2.84
2019-01-06T01:49:16.883Z,2.88
2019-01-06T01:52:37.878Z,2.94
2019-01-06T01:56:00.738Z,2.96
2019-01-06T01:59:23.635Z,3.00
2019-01-06T02:02:45.308Z,3.06
2019-01-06T02:06:08.138Z,3.00
2019-01-06T02:09:29.846Z,3.20
2019-01-06T02:12:50.064Z,3.10
2019-01-06T02:16:11.507Z,3.17
2019-01-06T02:19:33.267Z,3.12
2019-01-06T02:22:54.938Z,3.02
2019-01-06T02:26:11.282Z,3.00
2019-01-06T02:29:32.696Z,3.05
2019-01-06T02:32:57.690Z,3.05
2019-01-06T02:36:19.150Z,3.08
2019-01-06T02:39:32.119Z,3.11
2019-01-06T02:43:13.449Z,3.15
2019-01-06T02:46:39.243Z,3.17
2019-01-06T02:50:00.774Z,3.19
2019-01-06T02:53:15.115Z,3.19
2019-01-06T02:56:37.956Z,3.24
2019-01-06T02:59:56.021Z,3.25
2019-01-06T03:03:30.730Z,3.28
2019-01-06T03:06:46.439Z,3.32
2019-01-06T03:10:07.980Z,3.35
2019-01-06T03:13:37.171Z,3.34
2019-01-06T03:16:59.999Z,3.34
2019-01-06T03:20:20.137Z,3.36
2019-01-06T03:23:41.613Z,3.39
2019-01-06T03:26:54.466Z,3.39
2019-01-06T03:30:29.334Z,3.40
2019-01-06T03:34:01.141Z,3.45
2019-01-06T03:37:36.086Z,3.48
2019-01-06T03:41:04.893Z,3.53
2019-01-06T03:44:26.476Z,3.56
2019-01-06T03:47:42.827Z,3.56
2019-01-06T03:51:08.186Z,3.56
2019-01-06T03:54:39.979Z,3.56
2019-01-06T03:58:01.688Z,3.58
2019-01-06T04:01:30.522Z,3.60
2019-01-06T04:04:52.194Z,3.62
2019-01-06T04:08:30.664Z,3.61
2019-01-06T04:12:04.469Z,3.63
2019-01-06T04:15:26.075Z,3.64
2019-01-06T04:18:55.395Z,3.64
2019-01-06T04:22:17.081Z,3.65
2019-01-06T04:25:49.310Z,3.65
2019-01-06T04:29:12.217Z,3.65
2019-01-06T04:32:41.758Z,3.65
2019-01-06T04:36:13.471Z,3.64
2019-01-06T04:39:35.109Z,3.57
2019-01-06T04:42:57.928Z,3.62
2019-01-06T04:46:15.585Z,3.60
2019-01-06T04:49:37.281Z,3.62
2019-01-06T04:52:59.005Z,3.63
2019-01-06T04:56:27.887Z,3.63
2019-01-06T05:00:02.885Z,3.64
2019-01-06T05:03:29.507Z,3.67
2019-01-06T05:06:55.096Z,3.71
2019-01-06T05:10:27.220Z,3.72
2019-01-06T05:13:48.866Z,3.77
2019-01-06T05:17:11.814Z,3.81
2019-01-06T05:20:32.665Z,3.83
2019-01-06T05:24:04.394Z,3.86
2019-01-06T05:27:42.223Z,3.89
2019-01-06T05:31:01.003Z,3.91
2019-01-06T05:34:23.853Z,3.90
2019-01-06T05:37:45.332Z,3.89
2019-01-06T05:41:05.688Z,3.87
2019-01-06T05:44:34.353Z,3.87
2019-01-06T05:48:09.484Z,3.87
2019-01-06T05:51:31.052Z,3.87
2019-01-06T05:54:52.612Z,3.91
2019-01-06T05:58:21.677Z,3.93
2019-01-06T06:01:48.816Z,3.96
2019-01-06T06:05:11.232Z,3.93
2019-01-06T06:08:32.749Z,3.95
2019-01-06T06:11:58.570Z,3.96
2019-01-06T06:15:20.287Z,3.97
2019-01-06T06:18:38.158Z,3.98
2019-01-06T06:21:55.892Z,3.99
2019-01-06T06:25:20.990Z,3.98
2019-01-06T06:28:58.291Z,3.98
2019-01-06T06:32:20.203Z,3.96
2019-01-06T06:35:49.289Z,3.96
2019-01-06T06:39:11.097Z,3.95
2019-01-06T06:42:32.874Z,3.92
2019-01-06T06:45:54.495Z,3.92
2019-01-06T06:49:09.985Z,3.88
2019-01-06T06:52:28.852Z,3.85
2019-01-06T06:56:03.514Z,3.87
2019-01-06T06:59:29.335Z,3.90
2019-01-06T07:03:08.992Z,3.91
2019-01-06T07:06:25.162Z,3.93
2019-01-06T07:09:47.996Z,3.96
2019-01-06T07:13:13.621Z,3.96
2019-01-06T07:17:21.717Z,3.97
2019-01-06T07:20:44.495Z,3.98
2019-01-06T07:24:06.208Z,4.04
2019-01-06T07:27:30.201Z,4.07
2019-01-06T07:30:52.880Z,4.09
2019-01-06T07:34:25.622Z,4.14
2019-01-06T07:37:47.359Z,4.07
2019-01-06T07:41:13.211Z,4.08
2019-01-06T07:44:38.840Z,4.10
2019-01-06T07:47:54.926Z,4.10
2019-01-06T07:51:23.902Z,4.12
2019-01-06T07:54:45.241Z,4.13
2019-01-06T07:58:06.763Z,4.12
2019-01-06T08:01:34.855Z,4.10
2019-01-06T08:05:00.455Z,4.12
2019-01-06T08:08:22.185Z,4.12
2019-01-06T08:11:49.315Z,4.13
2019-01-06T08:15:10.985Z,4.12
2019-01-06T08:18:43.078Z,4.11
2019-01-06T08:22:04.799Z,4.14
2019-01-06T08:25:26.502Z,4.21
2019-01-06T08:28:48.246Z,4.13
2019-01-06T08:32:17.252Z,4.14
2019-01-06T08:35:37.733Z,4.15
2019-01-06T08:39:01.223Z,4.19
2019-01-06T08:42:22.991Z,4.25
2019-01-06T08:45:44.695Z,4.24
2019-01-06T08:49:13.589Z,4.26
2019-01-06T08:52:42.272Z,4.28
2019-01-06T08:56:04.069Z,4.32
2019-01-06T08:59:38.783Z,4.38
2019-01-06T09:03:10.633Z,4.41
2019-01-06T09:06:33.810Z,4.44
2019-01-06T09:09:55.277Z,4.46
2019-01-06T09:13:18.191Z,4.49
2019-01-06T09:16:42.183Z,4.51
2019-01-06T09:20:03.751Z,4.53
2019-01-06T09:23:18.445Z,4.57
2019-01-06T09:26:44.098Z,4.58
2019-01-06T09:30:05.743Z,4.62
2019-01-06T09:33:21.093Z,4.66
2019-01-06T09:36:43.022Z,4.69
2019-01-06T09:40:08.846Z,4.74
2019-01-06T09:43:31.672Z,4.80
2019-01-06T09:46:54.503Z,4.84
2019-01-06T09:50:19.364Z,4.84
2019-01-06T09:53:42.211Z,4.88
2019-01-06T09:57:04.007Z,4.88
2019-01-06T10:00:27.589Z,4.85
2019-01-06T10:03:52.139Z,4.90
2019-01-06T10:07:17.924Z,4.91
2019-01-06T10:10:41.400Z,4.96
2019-01-06T10:14:02.729Z,4.95
2019-01-06T10:17:24.147Z,4.99
2019-01-06T10:20:45.470Z,5.07
2019-01-06T10:23:59.419Z,5.10
2019-01-06T10:27:28.321Z,5.15
2019-01-06T10:30:49.891Z,5.16
2019-01-06T10:34:14.168Z,5.29
2019-01-06T10:37:40.096Z,5.33
2019-01-06T10:40:56.447Z,5.36
2019-01-06T10:44:29.342Z,5.42
2019-01-06T10:47:58.550Z,5.43
2019-01-06T10:51:20.333Z,5.48
2019-01-06T10:54:43.194Z,5.51
2019-01-06T10:58:04.910Z,5.62
2019-01-06T11:01:22.485Z,5.67
2019-01-06T11:04:44.289Z,5.72
2019-01-06T11:08:18.019Z,5.79
2019-01-06T11:11:48.049Z,5.82
2019-01-06T11:15:20.072Z,5.89
2019-01-06T11:18:41.880Z,5.99
2019-01-06T11:22:04.790Z,6.07
2019-01-06T11:25:30.867Z,6.11
2019-01-06T11:28:52.547Z,6.19
2019-01-06T11:32:14.236Z,6.28
2019-01-06T11:35:39.823Z,6.47
2019-01-06T11:39:07.040Z,6.53
2019-01-06T11:42:20.315Z,6.72
2019-01-06T11:45:42.008Z,6.83
2019-01-06T11:49:16.665Z,6.96
2019-01-06T11:52:42.352Z,7.01
2019-01-06T11:56:09.834Z,7.03
2019-01-06T11:59:30.367Z,7.15
2019-01-06T12:02:53.590Z,7.19
2019-01-06T12:06:16.439Z,7.29
2019-01-06T12:09:38.201Z,7.29
2019-01-06T12:12:59.871Z,7.25
2019-01-06T12:16:25.510Z,7.29
2019-01-06T12:19:45.538Z,7.45
2019-01-06T12:23:08.327Z,7.44
2019-01-06T12:26:34.528Z,7.39
2019-01-06T12:29:57.343Z,7.43
2019-01-06T12:33:25.866Z,7.31
2019-01-06T12:36:56.886Z,7.36
2019-01-06T12:40:18.557Z,7.41
2019-01-06T12:43:40.537Z,7.43
2019-01-06T12:47:02.390Z,7.64
2019-01-06T12:50:19.737Z,7.61
2019-01-06T12:53:40.075Z,7.56
2019-01-06T12:56:57.991Z,7.55
2019-01-06T13:00:19.579Z,7.54
2019-01-06T13:03:41.519Z,7.60
2019-01-06T13:07:03.210Z,7.56
2019-01-06T13:10:26.589Z,7.51
2019-01-06T13:13:53.538Z,7.56
2019-01-06T13:17:17.727Z,7.54
2019-01-06T13:20:47.029Z,7.52
2019-01-06T13:24:08.769Z,7.53
2019-01-06T13:27:34.496Z,7.55
2019-01-06T13:31:00.522Z,7.50
2019-01-06T13:34:16.096Z,7.47
2019-01-06T13:37:54.629Z,7.44
2019-01-06T13:41:16.556Z,7.51
2019-01-06T13:44:41.373Z,7.42
2019-01-06T13:48:16.292Z,7.57
2019-01-06T13:51:38.070Z,7.45
2019-01-06T13:55:04.081Z,7.43
2019-01-06T13:58:26.902Z,7.36
2019-01-06T14:01:55.703Z,7.35
2019-01-06T14:05:33.504Z,7.31
2019-01-06T14:08:55.013Z,7.43
2019-01-06T14:12:16.762Z,7.48
2019-01-06T14:15:39.597Z,7.42
2019-01-06T14:18:58.268Z,7.40
2019-01-06T14:22:19.065Z,7.39
2019-01-06T14:25:40.740Z,7.38
2019-01-06T14:29:02.406Z,7.42
2019-01-06T14:32:25.175Z,7.29
2019-01-06T14:35:48.005Z,7.33
2019-01-06T14:39:11.026Z,7.31
2019-01-06T14:42:32.767Z,7.29
2019-01-06T14:45:46.651Z,7.28
2019-01-06T14:49:12.257Z,7.25
2019-01-06T14:52:39.132Z,7.28
2019-01-06T14:56:01.158Z,7.25
2019-01-06T14:59:18.417Z,7.22
2019-01-06T15:02:37.770Z,7.32
2019-01-06T15:05:59.246Z,7.14
2019-01-06T15:09:20.772Z,7.16
2019-01-06T15:12:44.616Z,7.17
2019-01-06T15:16:06.084Z,7.16
2019-01-06T15:19:25.578Z,7.19
2019-01-06T15:22:48.770Z,7.15
2019-01-06T15:26:09.559Z,7.15
2019-01-06T15:29:32.393Z,7.21
2019-01-06T15:32:54.021Z,7.32
2019-01-06T15:36:15.751Z,7.37
2019-01-06T15:39:41.304Z,7.22
2019-01-06T15:43:16.268Z,7.22
2019-01-06T15:46:44.874Z,7.27
2019-01-06T15:50:07.708Z,7.31
2019-01-06T15:53:48.801Z,7.21
2019-01-06T15:57:10.429Z,7.24
2019-01-06T16:00:39.534Z,7.27
2019-01-06T16:04:16.680Z,7.28
2019-01-06T16:07:38.152Z,7.33
2019-01-06T16:11:16.360Z,7.34
2019-01-06T16:14:45.314Z,7.37
2019-01-06T16:18:10.955Z,7.33
2019-01-06T16:21:32.654Z,7.21
2019-01-06T16:24:56.421Z,7.25
2019-01-06T16:28:12.703Z,7.22
2019-01-06T16:31:41.645Z,7.37
2019-01-06T16:35:11.847Z,7.39
2019-01-06T16:38:33.774Z,7.39
2019-01-06T16:42:08.956Z,7.36
2019-01-06T16:45:30.605Z,7.44
2019-01-06T16:48:57.280Z,7.35
2019-01-06T16:52:25.156Z,7.36
2019-01-06T16:55:46.639Z,7.25
2019-01-06T16:59:27.947Z,7.30
2019-01-06T17:02:49.720Z,7.32
2019-01-06T17:06:18.619Z,7.36
2019-01-06T17:09:50.664Z,7.41
2019-01-06T17:13:10.756Z,7.46
2019-01-06T17:16:32.983Z,7.51
2019-01-06T17:19:45.711Z,7.47
2019-01-06T17:23:07.483Z,7.43
2019-01-06T17:26:25.846Z,7.42
2019-01-06T17:29:51.412Z,7.42
2019-01-06T17:33:14.227Z,7.44
2019-01-06T17:36:37.217Z,7.41
2019-01-06T17:39:58.182Z,7.47
2019-01-06T17:43:33.396Z,7.39
2019-01-06T17:46:55.143Z,7.26
2019-01-06T17:50:30.258Z,7.31
2019-01-06T17:54:11.294Z,7.16
2019-01-06T17:57:37.977Z,7.08
2019-01-06T18:01:18.995Z,7.20
2019-01-06T18:04:44.579Z,7.19
2019-01-06T18:08:13.428Z,7.16
2019-01-06T18:11:35.161Z,7.12
2019-01-06T18:14:54.052Z,7.23
2019-01-06T18:18:26.134Z,7.30
2019-01-06T18:21:59.518Z,7.28
2019-01-06T18:25:34.707Z,7.43
2019-01-06T18:28:58.022Z,7.44
2019-01-06T18:32:29.941Z,7.44
2019-01-06T18:35:51.589Z,7.37
2019-01-06T18:39:22.777Z,7.36
2019-01-06T18:42:44.480Z,7.55
2019-01-06T18:46:06.198Z,7.48
2019-01-06T18:49:22.731Z,7.49
2019-01-06T18:52:56.244Z,7.57
2019-01-06T18:56:13.426Z,7.60
2019-01-06T18:59:45.538Z,7.69
2019-01-06T19:03:07.402Z,7.62
2019-01-06T19:06:29.423Z,7.64
2019-01-06T19:09:51.417Z,7.50
2019-01-06T19:13:29.684Z,7.55
2019-01-06T19:16:46.472Z,7.58
2019-01-06T19:20:20.385Z,7.62
2019-01-06T19:23:40.071Z,7.56
2019-01-06T19:27:21.551Z,7.58
2019-01-06T19:30:37.640Z,7.55
2019-01-06T19:34:00.467Z,7.65
2019-01-06T19:37:41.455Z,7.53
2019-01-06T19:41:13.349Z,7.51
2019-01-06T19:44:54.344Z,7.54
2019-01-06T19:48:29.317Z,7.55
2019-01-06T19:51:52.148Z,7.59
2019-01-06T19:55:09.851Z,7.47
2019-01-06T19:58:37.821Z,7.46
2019-01-06T20:01:59.437Z,7.55
2019-01-06T20:05:40.693Z,7.59
2019-01-06T20:09:11.677Z,7.46
2019-01-06T20:12:46.477Z,7.39
2019-01-06T20:16:15.355Z,7.35
2019-01-06T20:19:37.011Z,7.37
2019-01-06T20:22:58.845Z,7.36
2019-01-06T20:26:13.424Z,7.48
2019-01-06T20:29:45.115Z,7.44
2019-01-06T20:33:00.821Z,7.41
2019-01-06T20:36:22.311Z,7.44
2019-01-06T20:39:51.538Z,7.36
2019-01-06T20:43:23.598Z,7.42
2019-01-06T20:47:04.580Z,7.44
2019-01-06T20:50:27.414Z,7.43
2019-01-06T20:53:49.363Z,7.33
2019-01-06T20:57:11.168Z,7.31
2019-01-06T21:00:26.958Z,7.32
2019-01-06T21:04:01.497Z,7.48
2019-01-06T21:07:19.578Z,7.50
2019-01-06T21:10:41.411Z,7.38
2019-01-06T21:14:03.333Z,7.41
2019-01-06T21:17:25.235Z,7.46
2019-01-06T21:20:41.022Z,7.43
2019-01-06T21:24:09.671Z,7.40
2019-01-06T21:27:28.805Z,7.48
2019-01-06T21:30:50.291Z,7.35
2019-01-06T21:34:10.894Z,7.35
2019-01-06T21:37:36.556Z,7.45
2019-01-06T21:40:58.098Z,7.43
2019-01-06T21:44:15.479Z,7.46
2019-01-06T21:47:36.969Z,7.39
2019-01-06T21:50:58.683Z,7.38
2019-01-06T21:54:15.440Z,7.30
2019-01-06T21:57:38.258Z,7.35
2019-01-06T22:00:56.553Z,7.35
2019-01-06T22:04:13.871Z,7.37
2019-01-06T22:07:46.357Z,7.29
2019-01-06T22:11:06.727Z,7.35
2019-01-06T22:14:29.591Z,7.40
2019-01-06T22:18:04.790Z,7.35
2019-01-06T22:21:30.425Z,7.39
2019-01-06T22:25:00.193Z,7.42
2019-01-06T22:28:35.238Z,7.38
2019-01-06T22:31:50.941Z,7.35
2019-01-06T22:35:19.581Z,7.44
2019-01-06T22:38:57.526Z,7.29
2019-01-06T22:42:29.243Z,7.32
2019-01-06T22:45:50.851Z,7.33
2019-01-06T22:49:06.576Z,7.23
2019-01-06T22:52:26.652Z,7.20
2019-01-06T22:55:48.188Z,7.28
2019-01-06T22:59:09.732Z,7.23
2019-01-06T23:02:48.002Z,7.21
2019-01-06T23:06:18.575Z,7.13
2019-01-06T23:09:51.458Z,7.19
2019-01-06T23:13:08.669Z,7.25
2019-01-06T23:16:30.219Z,7.25
2019-01-06T23:19:49.363Z,7.10
2019-01-06T23:23:27.284Z,7.09
2019-01-06T23:26:48.852Z,7.09
2019-01-06T23:30:10.634Z,7.12
2019-01-06T23:33:32.395Z,7.12
2019-01-06T23:36:54.058Z,7.15
2019-01-06T23:40:32.099Z,7.03
2019-01-06T23:44:01.059Z,7.12
2019-01-06T23:47:22.578Z,7.12
2019-01-06T23:50:42.718Z,7.19
2019-01-06T23:53:56.442Z,7.15
2019-01-06T23:57:18.702Z,7.16
